Time;durP1;ratioP1;P1;durP2;ratioP2;P2;SDS_P1;SDS_P2;PMS_P1;PMS_P2;Temp;Humidity;BMP_temperature;BMP_pressure;BME280_temperature;BME280_humidity;BME280_pressure;Samples;Min_cycle;Max_cycle;Signal;HPM_P1;HPM_P2
2021/10/30 00:00:33;;;;;;;;;;;;;;;18.77;63.99;98448.56;2087505;28;19974;-58
2021/10/30 00:01:34;;;;;;;;;;;;;;;18.78;63.92;98444.78;2082627;28;19921;-59
2021/10/30 00:02:34;;;;;;;;;;;;;;;18.77;63.94;98443.09;2081757;28;19920;-58
2021/10/30 00:03:34;;;;;;;;;;;;;;;18.78;63.96;98438.47;2090789;28;19955;-59
2021/10/30 00:04:35;;;;;;;;;;;;;;;18.78;63.95;98444.78;2090745;28;20429;-59
2021/10/30 00:05:35;;;;;;;;;;;;;;;18.77;64.01;98443.09;2088398;28;20278;-59
2021/10/30 00:06:35;;;;;;;;;;;;;;;18.78;63.97;98450.22;2089596;28;19928;-59
2021/10/30 00:07:36;;;;;;;;;;;;;;;18.78;63.93;98435.75;2088616;28;19919;-59
2021/10/30 00:08:36;;;;;;;;;;;;;;;18.78;63.95;98433.03;2085812;28;19920;-59
2021/10/30 00:09:37;;;;;;;;;;;;;;;18.77;63.86;98426.72;2087130;28;19916;-59
2021/10/30 00:10:37;;;;;;;;;;;;;;;18.78;63.92;98433.84;2087429;28;19916;-59
2021/10/30 00:11:39;;;;;;;;;;;;;;;18.78;63.91;98431.13;2082794;28;20142;-58
2021/10/30 00:12:40;;;;;;;;;;;;;;;18.77;63.84;98425.88;2078544;28;19916;-59
2021/10/30 00:13:40;;;;;;;;;;;;;;;18.77;64.01;98418.53;2082264;28;19923;-59
2021/10/30 00:14:43;;;;;;;;;;;;;;;18.77;63.86;98421.25;2087558;28;19947;-58
2021/10/30 00:15:44;;;;;;;;;;;;;;;18.76;63.90;98419.53;2090184;28;20003;-59
2021/10/30 00:16:44;;;;;;;;;;;;;;;18.77;63.80;98418.53;2090280;28;19930;-59
2021/10/30 00:17:44;;;;;;;;;;;;;;;18.76;63.86;98414.09;2091738;28;19916;-59
2021/10/30 00:18:45;;;;;;;;;;;;;;;18.77;63.88;98404.88;2091388;28;20634;-59
2021/10/30 00:19:45;;;;;;;;;;;;;;;18.77;63.83;98409.50;2090515;28;20417;-59
2021/10/30 00:20:46;;;;;;;;;;;;;;;18.75;63.82;98406.91;2090913;28;19920;-59
2021/10/30 00:21:48;;;;;;;;;;;;;;;18.77;63.97;98409.50;2091048;28;20457;-59
2021/10/30 00:22:48;;;;;;;;;;;;;;;18.76;63.89;98403.16;2090981;28;19920;-58
2021/10/30 00:23:49;;;;;;;;;;;;;;;18.75;63.89;98401.44;2090592;28;20374;-59
2021/10/30 00:24:49;;;;;;;;;;;;;;;18.76;63.86;98399.59;2091121;28;20283;-59
2021/10/30 00:25:49;;;;;;;;;;;;;;;18.75;63.89;98398.72;2090040;28;20264;-59
2021/10/30 00:26:50;;;;;;;;;;;;;;;18.76;63.84;98397.72;2090820;28;19920;-59
2021/10/30 00:27:50;;;;;;;;;;;;;;;18.76;63.87;98394.97;2083880;28;19913;-59
2021/10/30 00:28:50;;;;;;;;;;;;;;;18.76;63.76;98397.72;2090178;28;20416;-59
2021/10/30 00:29:50;;;;;;;;;;;;;;;18.76;63.83;98389.50;2092514;28;20000;-59
2021/10/30 00:30:51;;;;;;;;;;;;;;;18.75;63.79;98390.53;2091235;28;20421;-59
2021/10/30 00:31:53;;;;;;;;;;;;;;;18.76;63.86;98392.25;2092216;28;20453;-58
2021/10/30 00:32:53;;;;;;;;;;;;;;;18.75;63.83;98387.81;2091087;28;19917;-58
2021/10/30 00:33:53;;;;;;;;;;;;;;;18.75;63.80;98385.06;2090861;28;19955;-59
2021/10/30 00:34:54;;;;;;;;;;;;;;;18.76;63.80;98380.50;2095961;28;19952;-59
2021/10/30 00:35:54;;;;;;;;;;;;;;;18.75;63.87;98379.63;2091619;28;19936;-58
2021/10/30 00:36:55;;;;;;;;;;;;;;;18.75;63.85;98379.63;2089604;28;19916;-59
2021/10/30 00:37:55;;;;;;;;;;;;;;;18.77;63.83;98379.47;2090752;28;19970;-59
2021/10/30 00:38:55;;;;;;;;;;;;;;;18.76;63.78;98381.31;2089979;28;20010;-59
2021/10/30 00:39:56;;;;;;;;;;;;;;;18.75;63.80;98373.31;2090089;28;19959;-59
2021/10/30 00:40:56;;;;;;;;;;;;;;;18.75;63.73;98370.59;2087166;28;19913;-59
2021/10/30 00:41:56;;;;;;;;;;;;;;;18.75;63.76;98363.25;2088843;28;19916;-59
2021/10/30 00:42:57;;;;;;;;;;;;;;;18.74;63.71;98361.56;2088667;28;19908;-59
2021/10/30 00:44:05;;;;;;;;;;;;;;;18.74;63.78;98356.09;2090022;28;20215;-59
2021/10/30 00:45:06;;;;;;;;;;;;;;;18.75;63.86;98356.94;2088701;28;19912;-59
2021/10/30 00:46:06;;;;;;;;;;;;;;;18.74;63.70;98358.84;2089389;28;19958;-60
2021/10/30 00:47:07;;;;;;;;;;;;;;;18.75;63.76;98360.50;2092948;28;19966;-59
2021/10/30 00:48:07;;;;;;;;;;;;;;;18.74;63.83;98356.09;2087576;28;19919;-59
2021/10/30 00:49:11;;;;;;;;;;;;;;;18.75;63.73;98351.47;2092135;28;19970;-59
2021/10/30 00:50:11;;;;;;;;;;;;;;;18.74;63.64;98350.63;2092325;28;19939;-59
2021/10/30 00:51:13;;;;;;;;;;;;;;;18.74;63.75;98345.19;2092040;28;19917;-59
2021/10/30 00:52:14;;;;;;;;;;;;;;;18.75;63.73;98351.47;2092273;28;19921;-58
2021/10/30 00:53:16;;;;;;;;;;;;;;;18.75;63.85;98340.56;2092729;28;20602;-58
2021/10/30 00:54:17;;;;;;;;;;;;;;;18.74;63.77;98345.19;2091134;28;19912;-58
2021/10/30 00:55:21;;;;;;;;;;;;;;;18.74;63.73;98339.72;2091597;28;19920;-59
2021/10/30 00:56:21;;;;;;;;;;;;;;;18.75;63.74;98340.56;2092996;28;19917;-58
2021/10/30 00:57:24;;;;;;;;;;;;;;;18.73;63.66;98338.00;2092551;28;19913;-58
2021/10/30 00:58:24;;;;;;;;;;;;;;;18.74;63.70;98327.94;2086233;28;19954;-58
2021/10/30 00:59:25;;;;;;;;;;;;;;;18.74;63.75;98323.34;2079613;28;19917;-58
2021/10/30 01:00:25;;;;;;;;;;;;;;;18.74;63.67;98319.75;2082617;28;19917;-59
2021/10/30 01:01:26;;;;;;;;;;;;;;;18.73;63.81;98318.91;2092239;28;19920;-58
2021/10/30 01:02:26;;;;;;;;;;;;;;;18.73;63.59;98310.72;2091649;28;19919;-59
2021/10/30 01:03:27;;;;;;;;;;;;;;;18.74;63.69;98317.00;2092965;28;20398;-59
2021/10/30 01:04:27;;;;;;;;;;;;;;;18.74;63.71;98311.56;2090615;28;19946;-59
2021/10/30 01:05:27;;;;;;;;;;;;;;;18.73;63.62;98307.16;2092549;28;19923;-59
2021/10/30 01:06:28;;;;;;;;;;;;;;;18.72;63.73;98303.56;2093644;28;19963;-59
2021/10/30 01:07:31;;;;;;;;;;;;;;;18.73;63.68;98305.25;2092212;28;19917;-59
2021/10/30 01:08:31;;;;;;;;;;;;;;;18.73;63.72;98304.41;2092983;28;20307;-59
2021/10/30 01:09:32;;;;;;;;;;;;;;;18.72;63.60;98303.56;2090957;28;19916;-59
2021/10/30 01:10:32;;;;;;;;;;;;;;;18.73;63.66;98309.88;2083758;28;20394;-59
2021/10/30 01:11:32;;;;;;;;;;;;;;;18.73;63.75;98302.53;2083635;28;19916;-58
2021/10/30 01:12:33;;;;;;;;;;;;;;;18.71;63.66;98293.69;2091654;28;19987;-58
2021/10/30 01:13:34;;;;;;;;;;;;;;;18.73;63.66;98290.78;2083543;28;19959;-58
2021/10/30 01:14:35;;;;;;;;;;;;;;;18.73;63.73;98291.63;2083110;28;19940;-59
2021/10/30 01:15:36;;;;;;;;;;;;;;;18.72;63.58;98289.94;2091052;28;19978;-59
2021/10/30 01:16:36;;;;;;;;;;;;;;;18.73;63.75;98288.03;2092133;28;19916;-59
2021/10/30 01:17:36;;;;;;;;;;;;;;;18.72;63.66;98278.19;2092050;28;19922;-59
2021/10/30 01:18:38;;;;;;;;;;;;;;;18.71;63.71;98280.03;2089045;28;20379;-58
2021/10/30 01:19:39;;;;;;;;;;;;;;;18.71;63.65;98282.75;2082015;28;19912;-59
2021/10/30 01:20:39;;;;;;;;;;;;;;;18.71;63.56;98274.56;2083501;28;19944;-59
2021/10/30 01:21:40;;;;;;;;;;;;;;;18.72;63.57;98280.91;2087781;28;19916;-59
2021/10/30 01:22:40;;;;;;;;;;;;;;;18.72;63.68;98275.44;2086351;28;19913;-59
2021/10/30 01:23:40;;;;;;;;;;;;;;;18.71;63.68;98274.56;2087918;28;20397;-59
2021/10/30 01:24:41;;;;;;;;;;;;;;;18.71;63.65;98271.84;2091758;28;20282;-59
2021/10/30 01:25:42;;;;;;;;;;;;;;;18.71;63.63;98269.13;2092729;28;19939;-59
2021/10/30 01:26:43;;;;;;;;;;;;;;;18.71;63.60;98274.56;2093729;28;19916;-59
2021/10/30 01:27:45;;;;;;;;;;;;;;;18.72;63.59;98270.00;2092811;28;20062;-59
2021/10/30 01:28:45;;;;;;;;;;;;;;;18.71;63.59;98257.34;2088930;28;19917;-68
2021/10/30 01:29:50;;;;;;;;;;;;;;;18.71;63.67;98257.34;2086638;28;19916;-68
2021/10/30 01:30:50;;;;;;;;;;;;;;;18.70;63.60;98256.53;2083278;28;20268;-68
2021/10/30 01:31:51;;;;;;;;;;;;;;;18.70;63.60;98264.72;2084413;28;19982;-68
2021/10/30 01:32:59;;;;;;;;;;;;;;;18.71;63.59;98255.47;2086969;28;19908;-68
2021/10/30 01:34:03;;;;;;;;;;;;;;;18.71;63.52;98252.75;2087127;28;19917;-67
2021/10/30 01:35:04;;;;;;;;;;;;;;;18.71;63.52;98262.81;2083978;28;19917;-68
2021/10/30 01:36:08;;;;;;;;;;;;;;;18.71;63.54;98252.75;2085932;28;20430;-68
2021/10/30 01:37:08;;;;;;;;;;;;;;;18.71;63.58;98247.28;2077355;28;20371;-68
2021/10/30 01:38:09;;;;;;;;;;;;;;;18.70;63.66;98255.69;2069276;28;19944;-68
2021/10/30 01:39:10;;;;;;;;;;;;;;;18.70;63.58;98248.34;2085980;28;19908;-68
2021/10/30 01:40:11;;;;;;;;;;;;;;;18.70;63.60;98248.34;2086582;28;20756;-68
2021/10/30 01:41:12;;;;;;;;;;;;;;;18.70;63.54;98234.69;2076219;28;20046;-68
2021/10/30 01:42:12;;;;;;;;;;;;;;;18.70;63.57;98237.41;2077796;28;19962;-68
2021/10/30 01:43:13;;;;;;;;;;;;;;;18.71;63.50;98241.81;2084984;28;19956;-68
2021/10/30 01:44:14;;;;;;;;;;;;;;;18.70;63.50;98237.41;2090827;28;19920;-68
2021/10/30 01:45:14;;;;;;;;;;;;;;;18.70;63.50;98231.97;2087037;28;20413;-68
2021/10/30 01:46:15;;;;;;;;;;;;;;;18.70;63.51;98233.84;2084964;28;20121;-68
2021/10/30 01:47:16;;;;;;;;;;;;;;;18.69;63.53;98222.09;2085369;28;19920;-68
2021/10/30 01:48:16;;;;;;;;;;;;;;;18.70;63.43;98229.22;2083538;28;20528;-68
2021/10/30 01:49:16;;;;;;;;;;;;;;;18.69;63.47;98227.56;2085956;28;19924;-68
2021/10/30 01:50:17;;;;;;;;;;;;;;;18.71;63.48;98230.06;2083049;28;19917;-69
2021/10/30 01:51:17;;;;;;;;;;;;;;;18.69;63.43;98222.09;2082615;28;19925;-68
2021/10/30 01:52:18;;;;;;;;;;;;;;;18.70;63.48;98221.03;2085624;28;19916;-68
2021/10/30 01:53:18;;;;;;;;;;;;;;;18.70;63.56;98223.78;2084146;28;19920;-68
2021/10/30 01:54:18;;;;;;;;;;;;;;;18.70;63.50;98222.94;2083025;28;19991;-69
2021/10/30 01:55:20;;;;;;;;;;;;;;;18.71;63.39;98219.16;2085307;28;19909;-68
2021/10/30 01:56:20;;;;;;;;;;;;;;;18.70;63.52;98217.47;2083106;28;19924;-68
2021/10/30 01:57:20;;;;;;;;;;;;;;;18.69;63.46;98222.09;2084521;28;19917;-68
2021/10/30 01:58:21;;;;;;;;;;;;;;;18.70;63.53;98215.59;2083982;28;19924;-69
2021/10/30 01:59:21;;;;;;;;;;;;;;;18.70;63.43;98218.31;2084581;28;19994;-68
2021/10/30 02:00:21;;;;;;;;;;;;;;;18.70;63.43;98209.28;2085942;28;19963;-68
2021/10/30 02:01:23;;;;;;;;;;;;;;;18.69;63.47;98211.19;2084434;28;19923;-68
2021/10/30 02:02:23;;;;;;;;;;;;;;;18.70;63.40;98206.56;2083296;28;19965;-68
2021/10/30 02:03:24;;;;;;;;;;;;;;;18.70;63.46;98201.09;2085996;28;19943;-68
2021/10/30 02:04:24;;;;;;;;;;;;;;;18.70;63.43;98199.22;2081601;28;19923;-68
2021/10/30 02:05:25;;;;;;;;;;;;;;;18.68;63.43;98198.56;2075817;28;20433;-67
2021/10/30 02:06:25;;;;;;;;;;;;;;;18.70;63.37;98192.91;2075639;28;19929;-68
2021/10/30 02:07:25;;;;;;;;;;;;;;;18.69;63.34;98189.34;2084373;28;19917;-67
2021/10/30 02:08:26;;;;;;;;;;;;;;;18.69;63.36;98183.00;2075881;28;20296;-69
2021/10/30 02:09:26;;;;;;;;;;;;;;;18.69;63.49;98175.69;2076241;28;19938;-68
2021/10/30 02:10:26;;;;;;;;;;;;;;;18.68;63.36;98171.25;2072778;28;19926;-68
2021/10/30 02:11:27;;;;;;;;;;;;;;;18.68;63.35;98171.25;2070991;28;20161;-69
2021/10/30 02:12:27;;;;;;;;;;;;;;;18.68;63.47;98176.72;2085135;28;19981;-67
2021/10/30 02:13:28;;;;;;;;;;;;;;;18.68;63.38;98171.25;2083877;28;19927;-68
2021/10/30 02:14:28;;;;;;;;;;;;;;;18.68;63.38;98168.53;2085279;28;19917;-68
2021/10/30 02:15:29;;;;;;;;;;;;;;;18.68;63.38;98163.06;2085365;28;19919;-68
2021/10/30 02:16:29;;;;;;;;;;;;;;;18.68;63.30;98171.25;2084731;28;20433;-69
2021/10/30 02:17:29;;;;;;;;;;;;;;;18.69;63.25;98172.97;2086371;28;19916;-68
2021/10/30 02:18:29;;;;;;;;;;;;;;;18.68;63.35;98171.25;2084488;28;19916;-69
2021/10/30 02:19:30;;;;;;;;;;;;;;;18.67;63.29;98177.78;2083097;28;20333;-69
2021/10/30 02:20:30;;;;;;;;;;;;;;;18.68;63.24;98165.81;2086403;28;19950;-68
2021/10/30 02:21:30;;;;;;;;;;;;;;;18.68;63.28;98170.41;2084460;28;19924;-69
2021/10/30 02:22:31;;;;;;;;;;;;;;;18.68;63.25;98171.25;2076049;28;19917;-68
2021/10/30 02:23:31;;;;;;;;;;;;;;;18.68;63.26;98171.25;2075169;28;19952;-69
2021/10/30 02:24:32;;;;;;;;;;;;;;;18.69;63.28;98172.09;2084959;28;20779;-68
2021/10/30 02:25:33;;;;;;;;;;;;;;;18.68;63.19;98176.72;2077838;28;20023;-68
2021/10/30 02:26:33;;;;;;;;;;;;;;;18.69;63.14;98177.56;2083254;28;19916;-68
2021/10/30 02:27:33;;;;;;;;;;;;;;;18.68;63.25;98176.72;2085964;28;19916;-68
2021/10/30 02:28:34;;;;;;;;;;;;;;;18.69;63.23;98172.97;2075833;28;20879;-68
2021/10/30 02:29:34;;;;;;;;;;;;;;;18.68;63.20;98182.19;2076437;28;19913;-67
2021/10/30 02:30:35;;;;;;;;;;;;;;;18.68;63.13;98171.25;2085723;28;19947;-68
2021/10/30 02:31:35;;;;;;;;;;;;;;;18.68;63.18;98170.41;2083875;28;20620;-68
2021/10/30 02:32:35;;;;;;;;;;;;;;;18.67;63.26;98164.13;2085133;28;19924;-68
2021/10/30 02:33:36;;;;;;;;;;;;;;;18.68;63.16;98160.34;2085339;28;19920;-68
2021/10/30 02:34:36;;;;;;;;;;;;;;;18.68;63.27;98159.50;2090232;28;19948;-68
2021/10/30 02:35:36;;;;;;;;;;;;;;;18.68;63.20;98159.50;2086136;28;19916;-68
2021/10/30 02:36:37;;;;;;;;;;;;;;;18.67;63.09;98147.75;2085904;28;19927;-69
2021/10/30 02:37:38;;;;;;;;;;;;;;;18.67;63.10;98142.28;2085174;28;20402;-68
2021/10/30 02:38:38;;;;;;;;;;;;;;;18.67;63.19;98135.97;2086569;28;19912;-68
2021/10/30 02:39:38;;;;;;;;;;;;;;;18.67;63.10;98134.09;2084353;28;20007;-68
2021/10/30 02:40:39;;;;;;;;;;;;;;;18.67;63.08;98136.84;2085992;28;19909;-68
2021/10/30 02:41:39;;;;;;;;;;;;;;;18.67;63.13;98142.28;2084045;28;20037;-68
2021/10/30 02:42:39;;;;;;;;;;;;;;;18.67;63.16;98136.84;2084081;28;19970;-69
2021/10/30 02:43:40;;;;;;;;;;;;;;;18.67;63.09;98131.38;2081466;28;20021;-68
2021/10/30 02:44:40;;;;;;;;;;;;;;;18.67;63.12;98125.91;2079775;28;20376;-68
2021/10/30 02:45:40;;;;;;;;;;;;;;;18.66;63.11;98124.22;2085324;28;19942;-68
2021/10/30 02:46:41;;;;;;;;;;;;;;;18.67;63.13;98128.66;2085416;28;20367;-68
2021/10/30 02:47:41;;;;;;;;;;;;;;;18.67;63.17;98125.91;2076076;28;19908;-68
2021/10/30 02:48:42;;;;;;;;;;;;;;;18.66;63.07;98115.19;2076390;28;19997;-68
2021/10/30 02:49:42;;;;;;;;;;;;;;;18.67;63.08;98123.19;2084252;28;20460;-70
2021/10/30 02:50:42;;;;;;;;;;;;;;;18.66;63.18;98113.28;2086252;28;19916;-68
2021/10/30 02:51:43;;;;;;;;;;;;;;;18.66;63.31;98117.91;2077236;28;20327;-68
2021/10/30 02:52:43;;;;;;;;;;;;;;;18.66;63.17;98107.84;2075539;28;19921;-69
2021/10/30 02:53:44;;;;;;;;;;;;;;;18.66;63.02;98107.84;2083690;28;20303;-68
2021/10/30 02:54:44;;;;;;;;;;;;;;;18.67;63.12;98105.94;2085631;28;20278;-68
2021/10/30 02:55:44;;;;;;;;;;;;;;;18.66;63.06;98107.84;2075568;28;19916;-68
2021/10/30 02:56:45;;;;;;;;;;;;;;;18.66;63.10;98102.38;2076466;28;19927;-68
2021/10/30 02:57:46;;;;;;;;;;;;;;;18.66;63.10;98099.66;2086032;28;20009;-68
2021/10/30 02:58:47;;;;;;;;;;;;;;;18.66;63.15;98099.66;2083867;28;20005;-68
2021/10/30 02:59:48;;;;;;;;;;;;;;;18.66;63.05;98094.19;2086016;28;20730;-68
2021/10/30 03:00:48;;;;;;;;;;;;;;;18.65;63.03;98076.13;2085081;28;19931;-68
2021/10/30 03:01:49;;;;;;;;;;;;;;;18.66;62.98;98085.16;2085392;28;19923;-68
2021/10/30 03:02:49;;;;;;;;;;;;;;;18.66;63.00;98076.97;2085482;28;19960;-68
2021/10/30 03:03:50;;;;;;;;;;;;;;;18.65;63.15;98078.88;2085789;28;19920;-68
2021/10/30 03:04:50;;;;;;;;;;;;;;;18.67;63.00;98089.56;2084310;28;20667;-68
2021/10/30 03:05:50;;;;;;;;;;;;;;;18.66;63.12;98080.53;2086903;28;19971;-68
2021/10/30 03:06:51;;;;;;;;;;;;;;;18.66;63.02;98074.25;2083493;28;20292;-68
2021/10/30 03:07:52;;;;;;;;;;;;;;;18.66;63.00;98068.78;2085235;28;20316;-68
2021/10/30 03:08:52;;;;;;;;;;;;;;;18.66;63.03;98058.72;2083550;28;20365;-68
2021/10/30 03:09:53;;;;;;;;;;;;;;;18.65;63.02;98057.03;2082211;28;19912;-68
2021/10/30 03:10:53;;;;;;;;;;;;;;;18.66;63.13;98058.72;2082610;28;19924;-68
2021/10/30 03:11:53;;;;;;;;;;;;;;;18.66;63.04;98047.78;2080549;28;20294;-68
2021/10/30 03:12:54;;;;;;;;;;;;;;;18.64;63.16;98044.41;2085027;28;19967;-68
2021/10/30 03:13:54;;;;;;;;;;;;;;;18.66;63.03;98050.53;2081498;28;19928;-68
2021/10/30 03:14:54;;;;;;;;;;;;;;;18.65;62.98;98043.41;2082601;28;19916;-67
2021/10/30 03:15:55;;;;;;;;;;;;;;;18.65;62.97;98035.22;2073305;28;19960;-68
2021/10/30 03:16:55;;;;;;;;;;;;;;;18.65;63.00;98040.66;2074821;28;20383;-68
2021/10/30 03:17:55;;;;;;;;;;;;;;;18.65;63.13;98029.75;2085131;28;19909;-68
2021/10/30 03:18:56;;;;;;;;;;;;;;;18.65;63.12;98032.47;2085455;28;20420;-68
2021/10/30 03:19:56;;;;;;;;;;;;;;;18.65;63.00;98035.22;2086625;28;19916;-68
2021/10/30 03:20:57;;;;;;;;;;;;;;;18.64;63.11;98034.38;2085097;28;20001;-68
2021/10/30 03:21:58;;;;;;;;;;;;;;;18.65;63.04;98029.75;2084620;28;20405;-68
2021/10/30 03:22:58;;;;;;;;;;;;;;;18.64;63.08;98033.50;2084841;28;20239;-68
2021/10/30 03:23:59;;;;;;;;;;;;;;;18.64;63.06;98033.50;2086358;28;19951;-68
2021/10/30 03:24:59;;;;;;;;;;;;;;;18.65;63.02;98035.22;2084858;28;20341;-69
2021/10/30 03:26:00;;;;;;;;;;;;;;;18.64;63.17;98022.59;2084475;28;20374;-69
2021/10/30 03:27:00;;;;;;;;;;;;;;;18.65;62.98;98029.75;2085008;28;20489;-69
2021/10/30 03:28:01;;;;;;;;;;;;;;;18.64;63.04;98037.09;2083531;28;19923;-69
2021/10/30 03:29:02;;;;;;;;;;;;;;;18.64;63.01;98026.19;2085571;28;19967;-69
2021/10/30 03:30:04;;;;;;;;;;;;;;;18.64;63.00;98044.41;2083037;28;20213;-69
2021/10/30 03:31:04;;;;;;;;;;;;;;;18.65;62.96;98043.41;2084775;28;20099;-70
2021/10/30 03:32:05;;;;;;;;;;;;;;;18.65;62.93;98032.47;2086013;28;19916;-69
2021/10/30 03:33:05;;;;;;;;;;;;;;;18.65;63.08;98035.22;2081372;28;19918;-69
2021/10/30 03:34:06;;;;;;;;;;;;;;;18.64;62.94;98034.38;2084132;28;19923;-69
2021/10/30 03:35:06;;;;;;;;;;;;;;;18.65;62.98;98035.22;2080439;28;19908;-69
2021/10/30 03:36:06;;;;;;;;;;;;;;;18.66;63.00;98030.59;2082186;28;19916;-69
2021/10/30 03:37:07;;;;;;;;;;;;;;;18.64;63.03;98028.91;2084122;28;20020;-69
2021/10/30 03:38:07;;;;;;;;;;;;;;;18.64;62.98;98022.59;2083570;28;19942;-67
2021/10/30 03:39:07;;;;;;;;;;;;;;;18.64;62.94;98031.66;2086614;28;20349;-68
2021/10/30 03:40:08;;;;;;;;;;;;;;;18.64;62.96;98028.03;2086587;28;20366;-69
2021/10/30 03:41:08;;;;;;;;;;;;;;;18.65;62.99;98040.66;2084477;28;19916;-68
2021/10/30 03:42:09;;;;;;;;;;;;;;;18.64;62.93;98047.16;2090442;28;19976;-68
2021/10/30 03:43:09;;;;;;;;;;;;;;;18.64;62.76;98044.41;2079850;28;20596;-68
2021/10/30 03:44:09;;;;;;;;;;;;;;;18.64;62.89;98045.28;2078082;28;20316;-68
2021/10/30 03:45:10;;;;;;;;;;;;;;;18.64;63.01;98049.88;2088467;28;19916;-68
2021/10/30 03:46:11;;;;;;;;;;;;;;;18.64;62.92;98044.41;2088694;28;19927;-69
2021/10/30 03:47:11;;;;;;;;;;;;;;;18.64;62.91;98041.69;2084332;28;20395;-69
2021/10/30 03:48:12;;;;;;;;;;;;;;;18.64;63.07;98050.75;2083893;28;19920;-68
2021/10/30 03:49:13;;;;;;;;;;;;;;;18.65;62.88;98054.31;2086078;28;19926;-68
2021/10/30 03:50:13;;;;;;;;;;;;;;;18.64;62.88;98049.88;2083314;28;19919;-69
2021/10/30 03:51:13;;;;;;;;;;;;;;;18.63;62.85;98042.75;2084731;28;19939;-68
2021/10/30 03:52:14;;;;;;;;;;;;;;;18.64;62.86;98044.41;2085296;28;20366;-68
2021/10/30 03:53:14;;;;;;;;;;;;;;;18.64;62.83;98044.41;2084892;28;20254;-68
2021/10/30 03:54:15;;;;;;;;;;;;;;;18.64;62.87;98047.16;2085085;28;20335;-68
2021/10/30 03:55:15;;;;;;;;;;;;;;;18.64;62.86;98044.41;2083369;28;19924;-68
2021/10/30 03:56:15;;;;;;;;;;;;;;;18.64;62.88;98047.16;2083700;28;19916;-69
2021/10/30 03:57:15;;;;;;;;;;;;;;;18.63;62.97;98053.66;2085030;28;19916;-68
2021/10/30 03:58:16;;;;;;;;;;;;;;;18.64;62.91;98055.34;2084488;28;20002;-68
2021/10/30 03:59:17;;;;;;;;;;;;;;;18.63;62.84;98048.19;2085038;28;20273;-68
2021/10/30 04:00:17;;;;;;;;;;;;;;;18.62;62.83;98058.28;2085538;28;20434;-68
2021/10/30 04:01:17;;;;;;;;;;;;;;;18.64;62.87;98068.97;2084502;28;19959;-68
2021/10/30 04:02:19;;;;;;;;;;;;;;;18.62;62.93;98063.72;2085694;28;19994;-68
2021/10/30 04:03:19;;;;;;;;;;;;;;;18.63;62.87;98070.03;2085177;28;20297;-68
2021/10/30 04:04:19;;;;;;;;;;;;;;;18.64;62.83;98071.69;2091533;28;20471;-68
2021/10/30 04:05:20;;;;;;;;;;;;;;;18.62;62.85;98073.81;2075278;28;20880;-68
2021/10/30 04:06:20;;;;;;;;;;;;;;;18.62;62.81;98079.28;2074752;28;20376;-68
2021/10/30 04:07:20;;;;;;;;;;;;;;;18.62;62.86;98073.81;2084935;28;19920;-68
2021/10/30 04:08:21;;;;;;;;;;;;;;;18.62;62.94;98073.81;2078927;28;19909;-68
2021/10/30 04:09:23;;;;;;;;;;;;;;;18.62;62.77;98076.53;2084744;28;19963;-68
2021/10/30 04:10:24;;;;;;;;;;;;;;;18.62;62.92;98080.09;2085001;28;19904;-68
2021/10/30 04:11:24;;;;;;;;;;;;;;;18.63;62.88;98080.94;2078913;28;20089;-68
2021/10/30 04:12:24;;;;;;;;;;;;;;;18.63;62.84;98080.94;2085546;28;19920;-68
2021/10/30 04:13:25;;;;;;;;;;;;;;;18.63;62.77;98075.50;2078124;28;19920;-68
2021/10/30 04:14:25;;;;;;;;;;;;;;;18.62;62.82;98087.47;2079676;28;19916;-68
2021/10/30 04:15:25;;;;;;;;;;;;;;;18.62;62.80;98084.72;2083487;28;19913;-68
2021/10/30 04:16:26;;;;;;;;;;;;;;;18.62;62.77;98068.34;2087260;28;20404;-58
2021/10/30 04:17:26;;;;;;;;;;;;;;;18.62;62.90;98090.19;2090555;28;19962;-59
2021/10/30 04:18:26;;;;;;;;;;;;;;;18.64;62.82;98088.06;2092017;28;19997;-59
2021/10/30 04:19:27;;;;;;;;;;;;;;;18.62;62.80;98082.00;2094005;28;19916;-59
2021/10/30 04:20:27;;;;;;;;;;;;;;;18.62;62.73;98080.09;2090139;28;19917;-58
2021/10/30 04:21:27;;;;;;;;;;;;;;;18.62;62.73;98079.28;2089167;28;20359;-59
2021/10/30 04:22:28;;;;;;;;;;;;;;;18.62;62.80;98069.19;2090516;28;19913;-59
2021/10/30 04:23:28;;;;;;;;;;;;;;;18.62;62.71;98079.28;2085687;28;19927;-58
2021/10/30 04:24:28;;;;;;;;;;;;;;;18.62;62.77;98079.28;2084691;28;20015;-59
2021/10/30 04:25:29;;;;;;;;;;;;;;;18.61;62.76;98072.94;2089962;28;19917;-59
2021/10/30 04:26:29;;;;;;;;;;;;;;;18.62;62.74;98074.66;2083918;28;19978;-59
2021/10/30 04:27:30;;;;;;;;;;;;;;;18.61;62.78;98072.09;2086100;28;19920;-58
2021/10/30 04:28:30;;;;;;;;;;;;;;;18.62;62.76;98068.34;2085126;28;19909;-60
2021/10/30 04:29:31;;;;;;;;;;;;;;;18.61;62.93;98067.47;2089667;28;19920;-60
2021/10/30 04:30:32;;;;;;;;;;;;;;;18.62;62.85;98065.63;2088297;28;20022;-59
2021/10/30 04:31:33;;;;;;;;;;;;;;;18.62;62.75;98068.34;2080927;28;19972;-59
2021/10/30 04:32:33;;;;;;;;;;;;;;;18.62;62.74;98060.16;2081769;28;20107;-59
2021/10/30 04:33:34;;;;;;;;;;;;;;;18.61;62.77;98062.03;2087445;28;19927;-58
2021/10/30 04:35:02;;;;;;;;;;;;;;;18.61;62.70;98072.09;2080875;28;20019;-58
2021/10/30 04:36:05;;;;;;;;;;;;;;;18.61;62.79;98072.09;2080081;28;19920;-59
2021/10/30 04:37:13;;;;;;;;;;;;;;;18.61;62.87;98077.56;2088865;28;19989;-58
2021/10/30 04:38:13;;;;;;;;;;;;;;;18.61;62.77;98066.66;2086177;28;19944;-58
2021/10/30 04:39:14;;;;;;;;;;;;;;;18.61;62.73;98066.66;2088297;28;20001;-58
2021/10/30 04:40:14;;;;;;;;;;;;;;;18.62;62.76;98057.44;2078809;28;20395;-58
2021/10/30 04:41:15;;;;;;;;;;;;;;;18.61;62.68;98061.19;2085733;28;19917;-58
2021/10/30 04:42:16;;;;;;;;;;;;;;;18.61;62.75;98074.84;2087271;28;19963;-58
2021/10/30 04:43:16;;;;;;;;;;;;;;;18.62;62.76;98065.63;2084180;28;20147;-58
2021/10/30 04:44:17;;;;;;;;;;;;;;;18.61;62.77;98062.03;2091201;28;19921;-59
2021/10/30 04:45:17;;;;;;;;;;;;;;;18.61;62.68;98061.19;2090205;28;19916;-59
2021/10/30 04:46:19;;;;;;;;;;;;;;;18.61;62.74;98066.66;2090358;28;19916;-59
2021/10/30 04:47:19;;;;;;;;;;;;;;;18.62;62.67;98062.91;2090321;28;19956;-59
2021/10/30 04:48:20;;;;;;;;;;;;;;;18.62;62.77;98068.34;2089966;28;19912;-59
2021/10/30 04:49:20;;;;;;;;;;;;;;;18.61;62.83;98066.66;2091915;28;19963;-59
2021/10/30 04:50:20;;;;;;;;;;;;;;;18.61;62.68;98072.09;2085083;28;20701;-60
2021/10/30 04:51:21;;;;;;;;;;;;;;;18.60;62.69;98057.63;2089715;28;19916;-58
2021/10/30 04:52:21;;;;;;;;;;;;;;;18.61;62.81;98061.19;2090510;28;20353;-59
2021/10/30 04:53:21;;;;;;;;;;;;;;;18.61;62.85;98050.28;2088040;28;19921;-59
2021/10/30 04:54:21;;;;;;;;;;;;;;;18.61;62.79;98061.19;2090381;28;19913;-59
2021/10/30 04:55:22;;;;;;;;;;;;;;;18.61;62.81;98058.47;2089436;28;19909;-59
2021/10/30 04:56:22;;;;;;;;;;;;;;;18.60;62.76;98063.09;2090268;28;20359;-58
2021/10/30 04:57:22;;;;;;;;;;;;;;;18.60;62.78;98054.91;2090859;28;19992;-58
2021/10/30 04:58:23;;;;;;;;;;;;;;;18.60;62.65;98051.31;2087348;28;19970;-59
2021/10/30 04:59:23;;;;;;;;;;;;;;;18.61;62.82;98055.72;2086087;28;20550;-59
2021/10/30 05:00:24;;;;;;;;;;;;;;;18.61;62.84;98061.19;2087033;28;19935;-58
2021/10/30 05:01:24;;;;;;;;;;;;;;;18.60;62.72;98060.34;2088289;28;19916;-59
2021/10/30 05:02:24;;;;;;;;;;;;;;;18.60;62.68;98054.06;2086362;28;19955;-59
2021/10/30 05:03:25;;;;;;;;;;;;;;;18.61;62.76;98047.53;2086367;28;19932;-58
2021/10/30 05:04:25;;;;;;;;;;;;;;;18.61;62.65;98050.28;2078330;28;19946;-59
2021/10/30 05:05:25;;;;;;;;;;;;;;;18.61;62.81;98039.34;2081484;28;20003;-59
2021/10/30 05:06:26;;;;;;;;;;;;;;;18.60;62.69;98027.59;2088932;28;19939;-59
2021/10/30 05:07:26;;;;;;;;;;;;;;;18.59;62.69;98019.59;2090906;28;20414;-59
2021/10/30 05:08:26;;;;;;;;;;;;;;;18.60;62.77;98015.84;2089490;28;20390;-59
2021/10/30 05:09:27;;;;;;;;;;;;;;;18.60;62.76;98015.84;2089791;28;19947;-59
2021/10/30 05:10:27;;;;;;;;;;;;;;;18.59;62.72;98003.22;2090016;28;19916;-59
2021/10/30 05:11:27;;;;;;;;;;;;;;;18.59;62.73;98009.56;2089889;28;20342;-59
2021/10/30 05:12:27;;;;;;;;;;;;;;;18.60;62.67;98015.84;2091264;28;19920;-59
2021/10/30 05:13:28;;;;;;;;;;;;;;;18.59;62.74;98005.97;2089410;28;19920;-59
2021/10/30 05:14:28;;;;;;;;;;;;;;;18.60;62.70;98004.94;2090343;28;20007;-59
2021/10/30 05:15:28;;;;;;;;;;;;;;;18.59;62.84;98005.97;2084012;28;20422;-59
2021/10/30 05:16:29;;;;;;;;;;;;;;;18.59;62.71;98005.97;2084789;28;19916;-59